createdAt,value
2019-05-01T00:01:01.364Z,10.28
2019-05-01T00:03:49.741Z,10.06
2019-05-01T00:06:19.870Z,9.90
2019-05-01T00:08:49.596Z,9.88
2019-05-01T00:11:18.084Z,10.30
2019-05-01T00:13:46.669Z,10.66
2019-05-01T00:16:15.092Z,10.89
2019-05-01T00:18:43.532Z,11.08
2019-05-01T00:21:11.964Z,11.23
2019-05-01T00:23:40.394Z,11.16
2019-05-01T00:26:08.829Z,11.09
2019-05-01T00:28:37.356Z,10.97
2019-05-01T00:31:05.820Z,11.01
2019-05-01T00:33:34.259Z,10.84
2019-05-01T00:36:02.716Z,10.56
2019-05-01T00:38:31.231Z,10.32
2019-05-01T00:40:59.740Z,10.48
2019-05-01T00:43:28.208Z,10.62
2019-05-01T00:45:56.628Z,10.77
2019-05-01T00:48:25.177Z,10.78
2019-05-01T00:50:53.579Z,10.59
2019-05-01T00:53:22.013Z,10.53
2019-05-01T00:55:52.105Z,10.61
2019-05-01T00:58:28.116Z,10.59
2019-05-01T01:01:07.190Z,10.38
2019-05-01T01:03:39.961Z,10.11
2019-05-01T01:06:08.964Z,9.92
2019-05-01T01:08:37.403Z,9.88
2019-05-01T01:11:05.812Z,9.97
2019-05-01T01:13:34.230Z,10.04
2019-05-01T01:16:02.692Z,10.39
2019-05-01T01:18:31.110Z,10.32
2019-05-01T01:20:59.545Z,10.10
2019-05-01T01:23:27.969Z,9.86
2019-05-01T01:25:56.562Z,9.52
2019-05-01T01:28:25.127Z,9.27
2019-05-01T01:30:56.458Z,9.04
2019-05-01T01:33:23.770Z,8.88
2019-05-01T01:35:52.201Z,8.81
2019-05-01T01:38:20.732Z,9.02
2019-05-01T01:40:49.328Z,9.42
2019-05-01T01:43:35.564Z,9.67
2019-05-01T01:46:09.542Z,9.59
2019-05-01T01:48:38.313Z,9.27
2019-05-01T01:51:06.815Z,9.31
2019-05-01T01:53:36.382Z,9.53
2019-05-01T01:56:04.954Z,9.68
2019-05-01T01:58:33.441Z,9.87
2019-05-01T02:01:09.620Z,9.95
2019-05-01T02:03:44.587Z,9.75
2019-05-01T02:06:13.157Z,9.92
2019-05-01T02:08:41.718Z,9.88
2019-05-01T02:11:10.216Z,9.69
2019-05-01T02:13:38.752Z,9.33
2019-05-01T02:16:07.146Z,9.14
2019-05-01T02:18:35.576Z,9.26
2019-05-01T02:21:04.637Z,9.43
2019-05-01T02:23:33.065Z,9.52
2019-05-01T02:26:02.214Z,9.29
2019-05-01T02:28:35.160Z,8.95
2019-05-01T02:31:26.996Z,8.83
2019-05-01T02:33:44.741Z,9.06
2019-05-01T02:36:16.421Z,9.13
2019-05-01T02:38:47.163Z,9.02
2019-05-01T02:41:16.828Z,8.79
2019-05-01T02:43:49.988Z,8.77
2019-05-01T02:46:21.219Z,8.56
2019-05-01T02:48:55.396Z,9.01
2019-05-01T02:51:26.155Z,9.10
2019-05-01T02:53:56.030Z,8.94
2019-05-01T02:56:26.819Z,8.90
2019-05-01T02:59:04.361Z,8.75
2019-05-01T03:01:46.427Z,8.74
2019-05-01T03:04:05.514Z,8.92
2019-05-01T03:06:35.740Z,9.11
2019-05-01T03:09:10.779Z,9.06
2019-05-01T03:11:41.572Z,8.91
2019-05-01T03:14:13.053Z,8.81
2019-05-01T03:16:42.891Z,8.62
2019-05-01T03:19:18.602Z,8.44
2019-05-01T03:21:54.762Z,8.39
2019-05-01T03:24:25.491Z,8.35
2019-05-01T03:26:55.071Z,8.08
2019-05-01T03:29:29.279Z,7.92
2019-05-01T03:32:16.042Z,7.94
2019-05-01T03:34:28.987Z,8.27
2019-05-01T03:36:57.528Z,8.34
2019-05-01T03:39:26.596Z,8.47
2019-05-01T03:41:55.183Z,8.67
2019-05-01T03:44:24.310Z,8.79
2019-05-01T03:46:53.767Z,8.93
2019-05-01T03:49:22.393Z,8.98
2019-05-01T03:51:50.821Z,8.92
2019-05-01T03:54:19.429Z,8.84
2019-05-01T03:56:48.114Z,8.78
2019-05-01T03:59:17.419Z,8.53
2019-05-01T04:01:47.751Z,8.50
2019-05-01T04:04:18.562Z,8.63
2019-05-01T04:06:48.358Z,8.75
2019-05-01T04:09:18.366Z,8.71
2019-05-01T04:11:47.029Z,8.70
2019-05-01T04:14:15.581Z,8.77
2019-05-01T04:16:45.892Z,8.68
2019-05-01T04:19:16.163Z,8.59
2019-05-01T04:21:46.295Z,8.53
2019-05-01T04:24:15.549Z,8.48
2019-05-01T04:26:43.978Z,8.38
2019-05-01T04:29:15.265Z,8.46
2019-05-01T04:32:00.642Z,8.31
2019-05-01T04:34:42.517Z,8.31
2019-05-01T04:37:13.247Z,8.41
2019-05-01T04:39:47.900Z,8.54
2019-05-01T04:42:16.551Z,8.10
2019-05-01T04:44:45.334Z,8.34
2019-05-01T04:47:14.408Z,8.26
2019-05-01T04:49:43.600Z,8.15
2019-05-01T04:52:12.179Z,8.21
2019-05-01T04:54:40.838Z,8.32
2019-05-01T04:57:09.365Z,8.29
2019-05-01T04:59:38.345Z,8.41
2019-05-01T05:02:08.866Z,8.81
2019-05-01T05:04:37.664Z,8.77
2019-05-01T05:07:06.335Z,8.52
2019-05-01T05:09:46.233Z,8.36
2019-05-01T05:12:26.306Z,8.56
2019-05-01T05:14:56.552Z,8.85
2019-05-01T05:17:26.721Z,9.10
2019-05-01T05:19:56.191Z,9.08
2019-05-01T05:22:24.911Z,9.17
2019-05-01T05:24:54.568Z,9.30
2019-05-01T05:27:24.556Z,9.41
2019-05-01T05:29:57.222Z,9.61
2019-05-01T05:32:28.784Z,9.50
2019-05-01T05:34:59.297Z,9.16
2019-05-01T05:37:31.483Z,8.80
2019-05-01T05:40:01.447Z,8.53
2019-05-01T05:42:30.730Z,8.55
2019-05-01T05:44:59.633Z,8.68
2019-05-01T05:47:35.618Z,8.96
2019-05-01T05:50:06.372Z,9.26
2019-05-01T05:52:44.269Z,9.43
2019-05-01T05:55:26.475Z,9.66
2019-05-01T05:57:59.333Z,9.53
2019-05-01T06:00:36.670Z,9.42
2019-05-01T06:03:31.033Z,9.57
2019-05-01T06:05:58.472Z,9.40
2019-05-01T06:08:30.521Z,9.09
2019-05-01T06:11:07.945Z,9.03
2019-05-01T06:13:56.981Z,9.23
2019-05-01T06:16:32.000Z,9.27
2019-05-01T06:19:17.720Z,9.27
2019-05-01T06:21:55.918Z,9.06
2019-05-01T06:24:28.732Z,8.99
2019-05-01T06:26:57.908Z,8.95
2019-05-01T06:29:30.951Z,9.12
2019-05-01T06:31:58.707Z,9.09
2019-05-01T06:34:28.643Z,9.12
2019-05-01T06:36:57.368Z,9.12
2019-05-01T06:39:25.944Z,9.17
2019-05-01T06:41:54.627Z,9.18
2019-05-01T06:44:33.563Z,9.18
2019-05-01T06:47:12.267Z,9.19
2019-05-01T06:49:43.091Z,9.14
2019-05-01T06:52:13.218Z,9.12
2019-05-01T06:54:41.787Z,9.31
2019-05-01T06:57:10.390Z,9.39
2019-05-01T06:59:40.676Z,9.14
2019-05-01T07:02:12.142Z,9.18
2019-05-01T07:04:42.241Z,9.26
2019-05-01T07:07:24.764Z,9.33
2019-05-01T07:09:44.082Z,9.32
2019-05-01T07:12:15.437Z,9.28
2019-05-01T07:14:47.029Z,9.38
2019-05-01T07:17:14.975Z,9.40
2019-05-01T07:19:54.598Z,9.50
2019-05-01T07:22:23.089Z,9.59
2019-05-01T07:24:52.155Z,9.46
2019-05-01T07:27:23.630Z,9.68
2019-05-01T07:29:53.838Z,10.01
2019-05-01T07:32:23.105Z,10.00
2019-05-01T07:34:51.690Z,10.07
2019-05-01T07:37:20.857Z,10.28
2019-05-01T07:39:51.828Z,10.41
2019-05-01T07:42:28.523Z,10.33
2019-05-01T07:45:08.230Z,9.96
2019-05-01T07:47:40.013Z,10.00
2019-05-01T07:50:17.542Z,10.01
2019-05-01T07:52:47.788Z,9.96
2019-05-01T07:55:20.243Z,9.99
2019-05-01T07:57:48.889Z,9.79
2019-05-01T08:00:41.065Z,9.73
2019-05-01T08:03:07.376Z,9.76
2019-05-01T08:05:40.820Z,9.74
2019-05-01T08:08:07.895Z,9.67
2019-05-01T08:10:38.539Z,9.92
2019-05-01T08:13:06.961Z,10.00
2019-05-01T08:15:35.382Z,9.90
2019-05-01T08:18:24.038Z,9.78
2019-05-01T08:20:55.087Z,9.83
2019-05-01T08:23:23.524Z,9.96
2019-05-01T08:25:51.935Z,10.02
2019-05-01T08:28:31.644Z,10.14
2019-05-01T08:31:15.681Z,10.27
2019-05-01T08:33:54.579Z,10.35
2019-05-01T08:36:23.077Z,10.45
2019-05-01T08:38:51.576Z,10.43
2019-05-01T08:41:20.030Z,10.42
2019-05-01T08:43:53.460Z,10.42
2019-05-01T08:46:32.834Z,10.47
2019-05-01T08:49:13.245Z,10.47
2019-05-01T08:51:41.658Z,10.52
2019-05-01T08:54:10.160Z,10.55
2019-05-01T08:56:38.758Z,10.55
2019-05-01T08:59:13.588Z,10.47
2019-05-01T09:01:45.758Z,10.61
2019-05-01T09:04:13.304Z,10.73
2019-05-01T09:06:43.863Z,10.78
2019-05-01T09:09:13.282Z,10.90
2019-05-01T09:11:41.700Z,10.98
2019-05-01T09:14:10.152Z,11.09
2019-05-01T09:16:38.566Z,11.35
2019-05-01T09:19:07.069Z,11.50
2019-05-01T09:21:37.730Z,11.70
2019-05-01T09:24:06.691Z,11.56
2019-05-01T09:26:45.386Z,11.50
2019-05-01T09:29:20.321Z,11.58
2019-05-01T09:31:49.811Z,11.81
2019-05-01T09:34:19.253Z,11.78
2019-05-01T09:36:48.473Z,11.48
2019-05-01T09:39:18.872Z,11.47
2019-05-01T09:41:48.662Z,11.43
2019-05-01T09:44:17.306Z,11.55
2019-05-01T09:46:45.739Z,11.65
2019-05-01T09:49:17.793Z,11.51
2019-05-01T09:51:49.326Z,11.74
2019-05-01T09:54:31.493Z,11.76
2019-05-01T09:57:00.009Z,11.89
2019-05-01T09:59:31.913Z,11.70
2019-05-01T10:02:02.921Z,11.77
2019-05-01T10:04:32.366Z,11.89
2019-05-01T10:07:02.290Z,11.99
2019-05-01T10:09:30.847Z,12.04
2019-05-01T10:11:59.263Z,12.20
2019-05-01T10:14:31.600Z,12.34
2019-05-01T10:16:57.847Z,12.44
2019-05-01T10:19:26.276Z,12.33
2019-05-01T10:21:57.862Z,12.47
2019-05-01T10:24:24.859Z,12.48
2019-05-01T10:26:59.973Z,12.44
2019-05-01T10:29:43.173Z,12.59
2019-05-01T10:32:16.978Z,12.64
2019-05-01T10:35:01.388Z,12.81
2019-05-01T10:37:33.582Z,12.93
2019-05-01T10:40:00.037Z,13.05
2019-05-01T10:42:28.473Z,13.15
2019-05-01T10:44:56.881Z,13.20
2019-05-01T10:47:25.322Z,13.18
2019-05-01T10:49:53.750Z,13.13
2019-05-01T10:52:22.218Z,13.29
2019-05-01T10:54:50.702Z,13.20
2019-05-01T10:57:19.222Z,13.08
2019-05-01T10:59:47.674Z,13.22
2019-05-01T11:02:17.745Z,13.35
2019-05-01T11:04:46.301Z,13.42
2019-05-01T11:07:14.749Z,13.19
2019-05-01T11:09:43.185Z,13.31
2019-05-01T11:12:11.613Z,12.98
2019-05-01T11:14:40.038Z,12.96
2019-05-01T11:17:08.519Z,13.08
2019-05-01T11:19:36.938Z,13.06
2019-05-01T11:22:05.627Z,13.30
2019-05-01T11:24:34.120Z,13.26
2019-05-01T11:27:02.629Z,13.61
2019-05-01T11:29:31.058Z,14.23
2019-05-01T11:32:07.076Z,14.55
2019-05-01T11:34:37.116Z,15.31
2019-05-01T11:37:08.508Z,15.92
2019-05-01T11:39:40.942Z,16.59
2019-05-01T11:42:13.228Z,17.36
2019-05-01T11:44:41.657Z,17.64
2019-05-01T11:47:19.178Z,17.63
2019-05-01T11:49:47.608Z,17.36
2019-05-01T11:52:16.034Z,17.14
2019-05-01T11:54:44.447Z,17.04
2019-05-01T11:57:12.885Z,16.74
2019-05-01T11:59:41.345Z,16.11
2019-05-01T12:02:09.773Z,16.35
2019-05-01T12:04:38.215Z,16.29
2019-05-01T12:07:06.724Z,16.51
2019-05-01T12:09:35.224Z,16.29
2019-05-01T12:12:05.474Z,16.59
2019-05-01T12:14:34.562Z,16.26
2019-05-01T12:17:19.342Z,16.31
2019-05-01T12:19:47.777Z,16.51
2019-05-01T12:22:16.216Z,16.62
2019-05-01T12:24:44.656Z,16.52
2019-05-01T12:27:13.169Z,16.43
2019-05-01T12:29:41.627Z,16.76
2019-05-01T12:32:10.043Z,16.72
2019-05-01T12:34:39.155Z,16.95
2019-05-01T12:37:17.911Z,16.78
2019-05-01T12:39:46.550Z,16.92
2019-05-01T12:42:16.583Z,16.91
2019-05-01T12:44:46.575Z,16.57
2019-05-01T12:47:16.780Z,16.67
2019-05-01T12:49:46.917Z,16.68
2019-05-01T12:52:19.718Z,16.83
2019-05-01T12:54:52.893Z,16.81
2019-05-01T12:57:21.323Z,16.90
2019-05-01T12:59:49.775Z,17.25
2019-05-01T13:02:18.207Z,17.15
2019-05-01T13:04:46.632Z,16.90
2019-05-01T13:07:15.137Z,16.85
2019-05-01T13:09:43.553Z,17.18
2019-05-01T13:12:12.001Z,17.29
2019-05-01T13:14:40.412Z,17.41
2019-05-01T13:17:08.861Z,17.47
2019-05-01T13:19:37.271Z,17.66
2019-05-01T13:22:05.773Z,18.79
2019-05-01T13:24:35.850Z,18.52
2019-05-01T13:27:06.157Z,19.23
2019-05-01T13:29:38.891Z,20.09
2019-05-01T13:32:13.200Z,20.97
2019-05-01T13:34:41.622Z,21.38
2019-05-01T13:37:10.058Z,21.60
2019-05-01T13:39:38.498Z,21.31
2019-05-01T13:42:09.086Z,20.89
2019-05-01T13:44:37.659Z,20.53
2019-05-01T13:47:06.092Z,20.87
2019-05-01T13:49:34.517Z,20.27
2019-05-01T13:52:02.949Z,19.55
2019-05-01T13:54:31.439Z,19.94
2019-05-01T13:56:59.906Z,20.81
2019-05-01T13:59:28.332Z,20.70
2019-05-01T14:01:56.836Z,21.00
2019-05-01T14:04:40.261Z,20.97
2019-05-01T14:07:16.192Z,20.55
2019-05-01T14:09:39.102Z,20.48
2019-05-01T14:12:07.595Z,19.76
2019-05-01T14:14:36.031Z,19.22
2019-05-01T14:17:04.532Z,19.05
2019-05-01T14:19:34.345Z,19.11
2019-05-01T14:22:20.797Z,19.26
2019-05-01T14:25:11.295Z,19.14
2019-05-01T14:27:39.822Z,19.21
2019-05-01T14:30:10.397Z,18.96
2019-05-01T14:32:38.843Z,19.27
2019-05-01T14:35:25.733Z,19.99
2019-05-01T14:37:54.172Z,20.46
2019-05-01T14:40:22.600Z,20.58
2019-05-01T14:42:51.073Z,20.97
2019-05-01T14:45:19.754Z,21.43
2019-05-01T14:47:51.544Z,21.31
2019-05-01T14:50:19.984Z,21.07
2019-05-01T14:52:48.453Z,20.65
2019-05-01T14:55:16.891Z,21.02
2019-05-01T14:57:45.387Z,21.24
2019-05-01T15:00:14.633Z,20.67
2019-05-01T15:02:43.085Z,20.49
2019-05-01T15:05:11.772Z,20.90
2019-05-01T15:07:43.890Z,21.26
2019-05-01T15:10:10.588Z,20.94
2019-05-01T15:12:42.074Z,20.99
2019-05-01T15:15:28.241Z,20.16
2019-05-01T15:18:01.240Z,20.17
2019-05-01T15:20:29.688Z,20.41
2019-05-01T15:23:04.373Z,20.60
2019-05-01T15:25:32.837Z,19.56
2019-05-01T15:28:01.274Z,20.48
2019-05-01T15:30:29.789Z,20.70
2019-05-01T15:32:58.239Z,20.55
2019-05-01T15:35:26.789Z,20.62
2019-05-01T15:37:56.835Z,20.59
2019-05-01T15:40:36.087Z,20.51
2019-05-01T15:43:24.097Z,20.25
2019-05-01T15:45:52.607Z,20.26
2019-05-01T15:48:21.058Z,20.27
2019-05-01T15:50:50.111Z,20.48
2019-05-01T15:53:19.649Z,20.52
2019-05-01T15:55:48.112Z,20.50
2019-05-01T15:58:16.545Z,20.32
2019-05-01T16:00:45.130Z,20.00
2019-05-01T16:03:13.621Z,20.02
2019-05-01T16:05:42.232Z,19.95
2019-05-01T16:08:10.822Z,20.01
2019-05-01T16:10:40.919Z,20.00
2019-05-01T16:13:09.388Z,19.89
2019-05-01T16:15:37.842Z,19.80
2019-05-01T16:18:06.297Z,19.59
2019-05-01T16:20:34.939Z,19.62
2019-05-01T16:23:03.370Z,19.53
2019-05-01T16:25:31.795Z,19.50
2019-05-01T16:28:00.410Z,19.24
2019-05-01T16:30:28.903Z,19.23
2019-05-01T16:32:57.427Z,19.27
2019-05-01T16:35:25.836Z,19.19
2019-05-01T16:37:55.931Z,19.18
2019-05-01T16:40:34.769Z,19.16
2019-05-01T16:43:21.563Z,18.91
2019-05-01T16:45:49.999Z,18.69
2019-05-01T16:48:18.432Z,18.69
2019-05-01T16:50:48.485Z,18.54
2019-05-01T16:53:16.916Z,18.40
2019-05-01T16:55:47.805Z,18.36
2019-05-01T16:58:16.987Z,18.21
2019-05-01T17:01:02.265Z,17.97
2019-05-01T17:03:35.357Z,17.97
2019-05-01T17:06:11.345Z,17.84
2019-05-01T17:08:47.135Z,17.66
2019-05-01T17:11:15.914Z,17.53
2019-05-01T17:13:57.225Z,17.55
2019-05-01T17:16:26.200Z,17.51
2019-05-01T17:18:54.651Z,17.44
2019-05-01T17:21:23.067Z,17.29
2019-05-01T17:23:51.516Z,17.20
2019-05-01T17:26:20.585Z,17.07
2019-05-01T17:28:49.007Z,17.08
2019-05-01T17:31:17.421Z,17.06
2019-05-01T17:33:45.846Z,16.97
2019-05-01T17:36:14.274Z,16.97
2019-05-01T17:38:49.246Z,16.96
2019-05-01T17:41:12.845Z,16.92
2019-05-01T17:43:44.705Z,16.90
2019-05-01T17:46:12.071Z,16.96
2019-05-01T17:48:46.577Z,17.01
2019-05-01T17:51:10.887Z,16.98
2019-05-01T17:53:39.329Z,17.03
2019-05-01T17:56:10.068Z,17.07
2019-05-01T17:58:37.882Z,17.11
2019-05-01T18:01:07.955Z,17.15
2019-05-01T18:03:54.495Z,17.11
2019-05-01T18:06:30.314Z,16.92
2019-05-01T18:09:03.350Z,16.78
2019-05-01T18:11:31.965Z,16.73
2019-05-01T18:14:01.427Z,16.68
2019-05-01T18:16:29.960Z,16.70
2019-05-01T18:18:58.383Z,16.78
2019-05-01T18:21:26.956Z,16.93
2019-05-01T18:24:06.008Z,17.01
2019-05-01T18:26:52.464Z,17.07
2019-05-01T18:29:35.513Z,17.05
2019-05-01T18:32:02.987Z,16.98
2019-05-01T18:34:33.693Z,16.91
2019-05-01T18:37:20.535Z,16.82
2019-05-01T18:39:49.608Z,16.74
2019-05-01T18:42:30.014Z,16.58
2019-05-01T18:44:58.544Z,16.53
2019-05-01T18:47:27.028Z,16.48
2019-05-01T18:49:55.465Z,16.44
2019-05-01T18:52:23.895Z,16.33
2019-05-01T18:54:58.084Z,16.16
2019-05-01T18:57:26.612Z,16.04
2019-05-01T18:59:55.044Z,15.95
2019-05-01T19:02:24.974Z,15.90
2019-05-01T19:04:53.863Z,15.84
2019-05-01T19:07:22.268Z,15.73
2019-05-01T19:09:50.777Z,15.53
2019-05-01T19:12:19.282Z,15.15
2019-05-01T19:14:47.814Z,14.85
2019-05-01T19:17:16.308Z,14.62
2019-05-01T19:19:44.998Z,14.62
2019-05-01T19:22:13.514Z,14.45
2019-05-01T19:24:42.030Z,14.36
2019-05-01T19:27:14.201Z,14.49
2019-05-01T19:29:40.712Z,14.50
2019-05-01T19:32:09.624Z,14.56
2019-05-01T19:34:38.048Z,14.68
2019-05-01T19:37:39.801Z,14.76
2019-05-01T19:40:08.353Z,14.78
2019-05-01T19:42:36.833Z,14.79
2019-05-01T19:45:06.687Z,14.83
2019-05-01T19:47:35.089Z,14.78
2019-05-01T19:50:07.381Z,14.67
2019-05-01T19:52:37.925Z,14.62
2019-05-01T19:55:09.966Z,14.60
2019-05-01T19:57:53.839Z,14.55
2019-05-01T20:00:31.645Z,14.53
2019-05-01T20:03:00.362Z,14.50
2019-05-01T20:05:29.071Z,14.40
2019-05-01T20:08:00.309Z,14.30
2019-05-01T20:10:28.722Z,14.05
2019-05-01T20:12:57.150Z,13.92
2019-05-01T20:15:26.602Z,13.73
2019-05-01T20:17:55.043Z,13.56
2019-05-01T20:20:24.958Z,13.60
2019-05-01T20:22:55.304Z,13.65
2019-05-01T20:25:23.657Z,13.55
2019-05-01T20:27:53.250Z,13.34
2019-05-01T20:30:21.861Z,13.15
2019-05-01T20:32:50.273Z,13.15
2019-05-01T20:35:18.718Z,13.09
2019-05-01T20:37:47.128Z,13.05
2019-05-01T20:40:16.802Z,13.08
2019-05-01T20:42:45.223Z,13.22
2019-05-01T20:45:23.530Z,13.37
2019-05-01T20:47:46.021Z,13.45
2019-05-01T20:50:14.747Z,13.54
2019-05-01T20:52:43.160Z,13.59
2019-05-01T20:55:11.656Z,13.65
2019-05-01T20:57:44.439Z,13.61
2019-05-01T21:00:16.701Z,13.56
2019-05-01T21:02:44.627Z,13.46
2019-05-01T21:05:32.804Z,13.32
2019-05-01T21:08:05.659Z,13.23
2019-05-01T21:10:36.088Z,13.11
2019-05-01T21:13:04.616Z,13.05
2019-05-01T21:15:33.074Z,12.97
2019-05-01T21:18:04.960Z,12.90
2019-05-01T21:20:33.953Z,12.90
2019-05-01T21:23:05.966Z,12.91
2019-05-01T21:25:32.506Z,12.92
2019-05-01T21:28:00.929Z,12.91
2019-05-01T21:30:29.363Z,12.89
2019-05-01T21:32:59.087Z,12.74
2019-05-01T21:35:27.939Z,12.57
2019-05-01T21:37:56.365Z,12.29
2019-05-01T21:40:37.406Z,12.14
2019-05-01T21:42:55.868Z,12.21
2019-05-01T21:45:24.361Z,12.30
2019-05-01T21:47:52.953Z,12.30
2019-05-01T21:50:22.786Z,12.33
2019-05-01T21:52:53.649Z,12.28
2019-05-01T21:55:25.443Z,12.12
2019-05-01T21:57:51.858Z,12.05
2019-05-01T22:00:24.803Z,12.11
2019-05-01T22:02:51.334Z,12.10
2019-05-01T22:05:19.757Z,12.01
2019-05-01T22:07:48.187Z,11.81
2019-05-01T22:10:16.745Z,11.94
2019-05-01T22:12:48.892Z,11.99
2019-05-01T22:15:27.043Z,12.10
2019-05-01T22:17:59.804Z,12.05
2019-05-01T22:20:29.945Z,12.07
2019-05-01T22:23:02.414Z,12.07
2019-05-01T22:25:32.528Z,12.07
2019-05-01T22:28:03.237Z,12.06
2019-05-01T22:31:08.043Z,11.99
2019-05-01T22:33:37.495Z,11.88
2019-05-01T22:36:06.385Z,11.66
2019-05-01T22:38:34.821Z,11.52
2019-05-01T22:41:15.350Z,11.53
2019-05-01T22:43:43.806Z,11.51
2019-05-01T22:46:13.858Z,11.42
2019-05-01T22:48:42.297Z,11.28
2019-05-01T22:51:12.357Z,10.99
2019-05-01T22:53:40.786Z,10.79
2019-05-01T22:56:09.208Z,10.69
2019-05-01T22:58:37.631Z,10.47
2019-05-01T23:01:07.288Z,10.28
2019-05-01T23:03:41.384Z,10.26
2019-05-01T23:06:10.644Z,10.41
2019-05-01T23:08:39.149Z,10.59
2019-05-01T23:11:19.006Z,10.64
2019-05-01T23:13:37.982Z,10.75
2019-05-01T23:16:06.954Z,10.88
2019-05-01T23:18:35.382Z,10.93
2019-05-01T23:21:04.263Z,10.98
2019-05-01T23:23:32.765Z,10.99
2019-05-01T23:26:01.204Z,10.97
2019-05-01T23:28:29.621Z,10.90
2019-05-01T23:30:58.050Z,10.77
2019-05-01T23:33:26.489Z,10.63
2019-05-01T23:35:54.985Z,10.59
2019-05-01T23:38:23.473Z,10.67
2019-05-01T23:40:52.964Z,10.73
2019-05-01T23:43:23.012Z,10.67
2019-05-01T23:45:51.682Z,10.65
2019-05-01T23:48:20.102Z,10.60
2019-05-01T23:50:48.543Z,10.65
2019-05-01T23:53:16.972Z,10.56
2019-05-01T23:55:45.424Z,10.53
2019-05-01T23:58:14.472Z,10.47
